createdAt,value
2018-09-30T00:00:06.273Z,0
2018-09-30T00:01:05.705Z,0
2018-09-30T00:02:05.692Z,0
2018-09-30T00:03:05.935Z,0
2018-09-30T00:04:05.666Z,0
2018-09-30T00:05:06.163Z,0
2018-09-30T00:06:06.155Z,0
2018-09-30T00:07:05.887Z,0
2018-09-30T00:08:05.873Z,0
2018-09-30T00:09:05.855Z,0
2018-09-30T00:10:05.852Z,0
2018-09-30T00:11:05.839Z,0
2018-09-30T00:12:05.315Z,0
2018-09-30T00:13:06.067Z,0
2018-09-30T00:14:05.797Z,0
2018-09-30T00:15:05.279Z,0
2018-09-30T00:16:06.044Z,0
2018-09-30T00:17:05.757Z,0
2018-09-30T00:18:05.748Z,0
2018-09-30T00:19:05.746Z,0
2018-09-30T00:20:05.723Z,0
2018-09-30T00:21:05.719Z,0
2018-09-30T00:22:05.967Z,0
2018-09-30T00:23:05.690Z,0
2018-09-30T00:24:05.414Z,0
2018-09-30T00:25:05.659Z,0
2018-09-30T00:26:05.645Z,0
2018-09-30T00:27:05.881Z,0
2018-09-30T00:28:05.624Z,0
2018-09-30T00:29:05.862Z,0
2018-09-30T00:30:05.597Z,0
2018-09-30T00:31:05.687Z,0
2018-09-30T00:32:05.602Z,0
2018-09-30T00:33:05.559Z,0
2018-09-30T00:34:05.796Z,0
2018-09-30T00:35:05.534Z,0
2018-09-30T00:36:05.551Z,0
2018-09-30T00:37:05.520Z,0
2018-09-30T00:38:05.743Z,0
2018-09-30T00:39:05.479Z,0
2018-09-30T00:40:05.464Z,0
2018-09-30T00:41:05.457Z,0
2018-09-30T00:42:05.703Z,0
2018-09-30T00:43:05.684Z,0
2018-09-30T00:44:05.417Z,0
2018-09-30T00:45:05.154Z,0
2018-09-30T00:46:05.392Z,0
2018-09-30T00:47:05.637Z,0
2018-09-30T00:48:05.117Z,0
2018-09-30T00:49:05.610Z,0
2018-09-30T00:50:05.350Z,0
2018-09-30T00:51:04.826Z,0
2018-09-30T00:52:05.569Z,0
2018-09-30T00:53:05.553Z,0
2018-09-30T00:54:05.541Z,0
2018-09-30T00:55:05.527Z,0
2018-09-30T00:56:05.513Z,0
2018-09-30T00:57:05.502Z,0
2018-09-30T00:58:05.241Z,0
2018-09-30T00:59:05.231Z,0
2018-09-30T01:00:11.228Z,0
2018-09-30T01:01:05.452Z,0
2018-09-30T01:02:05.188Z,0
2018-09-30T01:03:05.428Z,0
2018-09-30T01:04:05.165Z,0
2018-09-30T01:05:05.148Z,0
2018-09-30T01:06:05.398Z,0
2018-09-30T01:07:05.377Z,0
2018-09-30T01:08:05.361Z,0
2018-09-30T01:09:05.096Z,0
2018-09-30T01:10:05.083Z,0
2018-09-30T01:11:05.337Z,0
2018-09-30T01:12:05.065Z,0
2018-09-30T01:13:05.298Z,0
2018-09-30T01:14:05.343Z,0
2018-09-30T01:15:05.273Z,0
2018-09-30T01:16:05.013Z,0
2018-09-30T01:17:04.995Z,0
2018-09-30T01:18:04.981Z,0
2018-09-30T01:19:04.981Z,0
2018-09-30T01:20:05.216Z,0
2018-09-30T01:21:04.944Z,0
2018-09-30T01:22:04.941Z,0
2018-09-30T01:23:04.919Z,0
2018-09-30T01:24:05.161Z,0
2018-09-30T01:25:05.147Z,0
2018-09-30T01:26:05.134Z,0
2018-09-30T01:27:05.126Z,0
2018-09-30T01:28:05.110Z,0
2018-09-30T01:29:05.092Z,0
2018-09-30T01:30:04.585Z,0
2018-09-30T01:31:04.818Z,0
2018-09-30T01:32:05.061Z,0
2018-09-30T01:33:05.043Z,0
2018-09-30T01:34:05.027Z,0
2018-09-30T01:35:05.019Z,0
2018-09-30T01:36:05.003Z,0
2018-09-30T01:37:04.990Z,0
2018-09-30T01:38:04.979Z,0
2018-09-30T01:39:04.710Z,0
2018-09-30T01:40:04.699Z,0
2018-09-30T01:41:04.937Z,0
2018-09-30T01:42:04.676Z,0
2018-09-30T01:43:04.911Z,0
2018-09-30T01:44:04.902Z,0
2018-09-30T01:45:04.637Z,0
2018-09-30T01:46:04.624Z,0
2018-09-30T01:47:04.869Z,0
2018-09-30T01:48:04.848Z,0
2018-09-30T01:49:04.837Z,0
2018-09-30T01:50:04.572Z,0
2018-09-30T01:51:04.812Z,0
2018-09-30T01:52:04.548Z,0
2018-09-30T01:53:04.531Z,0
2018-09-30T01:54:04.270Z,0
2018-09-30T01:55:04.768Z,0
2018-09-30T01:56:04.498Z,0
2018-09-30T01:57:04.483Z,0
2018-09-30T01:58:04.722Z,0
2018-09-30T01:59:04.454Z,0
2018-09-30T02:00:04.694Z,0
2018-09-30T02:01:04.425Z,0
2018-09-30T02:02:04.670Z,0
2018-09-30T02:03:04.666Z,0
2018-09-30T02:04:04.387Z,0
2018-09-30T02:05:04.375Z,0
2018-09-30T02:06:04.618Z,0
2018-09-30T02:07:04.607Z,0
2018-09-30T02:08:04.335Z,0
2018-09-30T02:09:04.585Z,0
2018-09-30T02:10:04.562Z,0
2018-09-30T02:11:04.549Z,0
2018-09-30T02:12:04.033Z,0
2018-09-30T02:13:04.525Z,0
2018-09-30T02:14:04.010Z,0
2018-09-30T02:15:04.510Z,0
2018-09-30T02:16:04.236Z,0
2018-09-30T02:17:03.968Z,0
2018-09-30T02:18:04.209Z,0
2018-09-30T02:19:04.245Z,0
2018-09-30T02:20:04.446Z,0
2018-09-30T02:21:04.419Z,0
2018-09-30T02:22:04.159Z,0
2018-09-30T02:23:04.142Z,0
2018-09-30T02:24:04.128Z,0
2018-09-30T02:25:04.366Z,0
2018-09-30T02:26:04.107Z,0
2018-09-30T02:27:04.352Z,0
2018-09-30T02:28:04.075Z,0
2018-09-30T02:29:04.065Z,0
2018-09-30T02:30:04.306Z,0
2018-09-30T02:31:04.310Z,0
2018-09-30T02:32:04.286Z,0
2018-09-30T02:33:04.025Z,0
2018-09-30T02:34:04.253Z,0
2018-09-30T02:35:04.238Z,0
2018-09-30T02:36:04.226Z,0
2018-09-30T02:37:04.219Z,0
2018-09-30T02:38:04.016Z,0
2018-09-30T02:39:04.185Z,0
2018-09-30T02:40:04.182Z,0
2018-09-30T02:41:03.923Z,0
2018-09-30T02:42:03.891Z,0
2018-09-30T02:43:04.134Z,0
2018-09-30T02:44:03.870Z,0
2018-09-30T02:45:03.855Z,0
2018-09-30T02:46:03.839Z,0
2018-09-30T02:47:03.835Z,0
2018-09-30T02:48:04.069Z,0
2018-09-30T02:49:03.812Z,0
2018-09-30T02:50:03.800Z,0
2018-09-30T02:51:04.030Z,0
2018-09-30T02:52:03.763Z,0
2018-09-30T02:53:03.747Z,0
2018-09-30T02:54:04.005Z,0
2018-09-30T02:55:03.991Z,0
2018-09-30T02:56:03.982Z,0
2018-09-30T02:57:03.957Z,0
2018-09-30T02:58:03.682Z,0
2018-09-30T02:59:03.668Z,0
2018-09-30T03:00:03.914Z,0
2018-09-30T03:01:03.902Z,0
2018-09-30T03:02:03.881Z,0
2018-09-30T03:03:03.870Z,0
2018-09-30T03:04:03.614Z,0
2018-09-30T03:05:03.859Z,0
2018-09-30T03:06:03.831Z,0
2018-09-30T03:07:03.562Z,0
2018-09-30T03:08:03.805Z,0
2018-09-30T03:09:03.792Z,0
2018-09-30T03:10:03.521Z,0
2018-09-30T03:11:03.517Z,0
2018-09-30T03:12:03.759Z,0
2018-09-30T03:13:03.483Z,0
2018-09-30T03:14:03.480Z,0
2018-09-30T03:15:03.725Z,0
2018-09-30T03:16:03.453Z,0
2018-09-30T03:17:03.685Z,0
2018-09-30T03:18:03.666Z,0
2018-09-30T03:19:03.402Z,0
2018-09-30T03:20:03.389Z,0
2018-09-30T03:21:03.636Z,0
2018-09-30T03:22:03.365Z,0
2018-09-30T03:23:03.359Z,0
2018-09-30T03:24:03.342Z,0
2018-09-30T03:25:03.588Z,0
2018-09-30T03:26:03.309Z,0
2018-09-30T03:27:03.580Z,0
2018-09-30T03:28:03.299Z,0
2018-09-30T03:29:03.523Z,0
2018-09-30T03:30:03.003Z,0
2018-09-30T03:31:03.244Z,0
2018-09-30T03:32:02.981Z,0
2018-09-30T03:33:03.468Z,0
2018-09-30T03:34:02.960Z,0
2018-09-30T03:35:03.195Z,0
2018-09-30T03:36:03.446Z,0
2018-09-30T03:37:03.165Z,0
2018-09-30T03:38:03.407Z,0
2018-09-30T03:39:03.395Z,0
2018-09-30T03:40:03.132Z,0
2018-09-30T03:41:03.120Z,0
2018-09-30T03:42:03.351Z,0
2018-09-30T03:43:02.832Z,0
2018-09-30T03:44:03.074Z,0
2018-09-30T03:45:03.064Z,0
2018-09-30T03:46:03.298Z,0
2018-09-30T03:47:03.031Z,0
2018-09-30T03:48:03.273Z,0
2018-09-30T03:49:03.004Z,0
2018-09-30T03:50:03.242Z,0
2018-09-30T03:51:02.985Z,0
2018-09-30T03:52:02.964Z,0
2018-09-30T03:53:03.216Z,0
2018-09-30T03:54:02.720Z,0
2018-09-30T03:55:03.196Z,0
2018-09-30T03:56:02.909Z,0
2018-09-30T03:57:03.195Z,0
2018-09-30T03:58:03.147Z,0
2018-09-30T03:59:03.152Z,0
2018-09-30T04:00:02.608Z,0
2018-09-30T04:01:03.134Z,0
2018-09-30T04:02:02.607Z,0
2018-09-30T04:03:02.567Z,0
2018-09-30T04:04:02.549Z,0
2018-09-30T04:05:02.795Z,0
2018-09-30T04:06:02.775Z,0
2018-09-30T04:07:03.016Z,0
2018-09-30T04:08:02.750Z,0
2018-09-30T04:09:02.739Z,0
2018-09-30T04:10:02.974Z,0
2018-09-30T04:11:02.720Z,0
2018-09-30T04:12:02.705Z,0
2018-09-30T04:13:02.681Z,0
2018-09-30T04:14:02.928Z,0
2018-09-30T04:15:02.657Z,0
2018-09-30T04:16:02.899Z,0
2018-09-30T04:17:03.552Z,0
2018-09-30T04:18:02.365Z,0
2018-09-30T04:19:02.601Z,0
2018-09-30T04:20:02.844Z,0
2018-09-30T04:21:02.833Z,0
2018-09-30T04:22:02.565Z,0
2018-09-30T04:23:02.807Z,0
2018-09-30T04:24:02.536Z,0
2018-09-30T04:25:02.529Z,0
2018-09-30T04:26:02.513Z,0
2018-09-30T04:27:02.757Z,0
2018-09-30T04:28:02.741Z,4
2018-09-30T04:29:02.469Z,0
2018-09-30T04:30:02.710Z,0
2018-09-30T04:31:02.450Z,4
2018-09-30T04:32:02.435Z,0
2018-09-30T04:33:02.718Z,4
2018-09-30T04:34:02.400Z,4
2018-09-30T04:35:02.645Z,4
2018-09-30T04:36:02.632Z,4
2018-09-30T04:37:02.614Z,8
2018-09-30T04:38:02.615Z,12
2018-09-30T04:39:02.588Z,12
2018-09-30T04:40:02.325Z,12
2018-09-30T04:41:02.320Z,12
2018-09-30T04:42:02.297Z,16
2018-09-30T04:43:02.543Z,24
2018-09-30T04:44:02.523Z,24
2018-09-30T04:45:02.536Z,32
2018-09-30T04:46:02.505Z,36
2018-09-30T04:47:02.486Z,40
2018-09-30T04:48:02.474Z,48
2018-09-30T04:49:02.203Z,60
2018-09-30T04:50:02.769Z,72
2018-09-30T04:51:02.434Z,84
2018-09-30T04:52:02.441Z,96
2018-09-30T04:53:02.403Z,112
2018-09-30T04:54:02.136Z,128
2018-09-30T04:55:02.374Z,144
2018-09-30T04:56:02.110Z,160
2018-09-30T04:57:01.844Z,176
2018-09-30T04:58:02.359Z,192
2018-09-30T04:59:02.319Z,208
2018-09-30T05:00:02.313Z,224
2018-09-30T05:01:02.041Z,244
2018-09-30T05:02:02.279Z,264
2018-09-30T05:03:02.018Z,284
2018-09-30T05:04:02.256Z,312
2018-09-30T05:05:02.241Z,340
2018-09-30T05:06:02.145Z,372
2018-09-30T05:07:02.214Z,404
2018-09-30T05:08:02.206Z,448
2018-09-30T05:09:02.189Z,492
2018-09-30T05:10:01.670Z,540
2018-09-30T05:11:02.164Z,588
2018-09-30T05:12:01.647Z,636
2018-09-30T05:13:02.140Z,680
2018-09-30T05:14:01.869Z,724
2018-09-30T05:15:01.857Z,776
2018-09-30T05:16:02.048Z,824
2018-09-30T05:17:01.835Z,872
2018-09-30T05:18:02.078Z,916
2018-09-30T05:19:02.055Z,964
2018-09-30T05:20:02.043Z,1012
2018-09-30T05:21:01.777Z,1064
2018-09-30T05:22:02.024Z,1128
2018-09-30T05:23:01.757Z,1188
2018-09-30T05:24:01.987Z,1256
2018-09-30T05:25:01.991Z,1320
2018-09-30T05:26:01.968Z,1388
2018-09-30T05:27:01.952Z,1464
2018-09-30T05:28:01.949Z,1556
2018-09-30T05:29:01.938Z,1652
2018-09-30T05:30:01.915Z,1728
2018-09-30T05:31:01.695Z,1800
2018-09-30T05:32:01.888Z,1904
2018-09-30T05:33:01.869Z,2036
2018-09-30T05:34:01.860Z,2200
2018-09-30T05:35:01.594Z,2364
2018-09-30T05:36:01.581Z,2476
2018-09-30T05:37:01.611Z,2680
2018-09-30T05:38:01.809Z,2900
2018-09-30T05:39:01.801Z,3044
2018-09-30T05:40:01.782Z,3128
2018-09-30T05:41:01.769Z,3192
2018-09-30T05:42:01.503Z,3504
2018-09-30T05:43:01.748Z,3768
2018-09-30T05:44:01.732Z,3816
2018-09-30T05:45:01.469Z,4012
2018-09-30T05:46:01.705Z,4192
2018-09-30T05:47:01.449Z,4440
2018-09-30T05:48:01.540Z,4592
2018-09-30T05:49:01.552Z,4476
2018-09-30T05:50:01.410Z,4448
2018-09-30T05:51:01.650Z,4532
2018-09-30T05:52:01.388Z,4216
2018-09-30T05:53:01.630Z,3944
2018-09-30T05:54:01.109Z,4200
2018-09-30T05:55:01.609Z,4588
2018-09-30T05:56:01.347Z,4728
2018-09-30T05:57:01.591Z,4872
2018-09-30T05:58:01.780Z,5060
2018-09-30T05:59:01.567Z,5252
2018-09-30T06:00:01.551Z,4956
2018-09-30T06:01:01.318Z,4540
2018-09-30T06:02:01.537Z,4388
2018-09-30T06:03:01.523Z,4412
2018-09-30T06:04:02.652Z,4656
2018-09-30T06:05:01.508Z,5136
2018-09-30T06:06:01.242Z,6164
2018-09-30T06:07:01.236Z,7160
2018-09-30T06:08:01.477Z,7720
2018-09-30T06:09:01.754Z,8020
2018-09-30T06:10:01.212Z,8524
2018-09-30T06:11:01.450Z,8656
2018-09-30T06:12:01.438Z,8824
2018-09-30T06:13:00.922Z,8976
2018-09-30T06:14:01.285Z,9452
2018-09-30T06:15:01.411Z,8880
2018-09-30T06:16:01.413Z,8716
2018-09-30T06:17:00.897Z,8620
2018-09-30T06:18:01.392Z,9380
2018-09-30T06:19:01.377Z,9976
2018-09-30T06:20:01.367Z,9232
2018-09-30T06:21:01.365Z,10100
2018-09-30T06:22:01.360Z,11360
2018-09-30T06:23:01.345Z,11820
2018-09-30T06:24:01.176Z,12064
2018-09-30T06:25:01.326Z,11804
2018-09-30T06:26:01.328Z,12288
2018-09-30T06:27:01.319Z,12892
2018-09-30T06:28:01.059Z,13168
2018-09-30T06:29:01.309Z,13408
2018-09-30T06:30:00.800Z,13888
2018-09-30T06:31:01.289Z,14112
2018-09-30T06:32:01.203Z,13448
2018-09-30T06:33:01.026Z,13104
2018-09-30T06:34:01.270Z,13528
2018-09-30T06:35:01.268Z,13384
2018-09-30T06:36:01.012Z,13888
2018-09-30T06:37:01.004Z,14944
2018-09-30T06:38:01.253Z,13608
2018-09-30T06:39:00.992Z,12832
2018-09-30T06:40:00.991Z,11668
2018-09-30T06:41:01.237Z,15712
2018-09-30T06:42:01.237Z,15904
2018-09-30T06:43:01.250Z,16128
2018-09-30T06:44:00.716Z,16736
2018-09-30T06:45:01.200Z,17856
2018-09-30T06:46:01.220Z,17728
2018-09-30T06:47:01.245Z,16992
2018-09-30T06:48:00.961Z,17632
2018-09-30T06:49:00.706Z,17696
2018-09-30T06:50:01.199Z,18336
2018-09-30T06:51:01.229Z,17984
2018-09-30T06:52:01.190Z,19104
2018-09-30T06:53:00.678Z,21408
2018-09-30T06:54:01.188Z,23584
2018-09-30T06:55:01.194Z,24608
2018-09-30T06:56:01.176Z,25472
2018-09-30T06:57:01.170Z,26208
2018-09-30T06:58:01.172Z,26112
2018-09-30T06:59:01.171Z,26144
2018-09-30T07:00:00.913Z,27104
2018-09-30T07:01:00.913Z,28192
2018-09-30T07:02:00.401Z,27936
2018-09-30T07:03:00.899Z,28000
2018-09-30T07:04:00.907Z,28448
2018-09-30T07:05:01.683Z,29280
2018-09-30T07:06:00.896Z,30720
2018-09-30T07:07:00.894Z,29664
2018-09-30T07:08:00.896Z,29184
2018-09-30T07:09:00.895Z,30368
2018-09-30T07:10:00.890Z,31488
2018-09-30T07:11:01.073Z,31936
2018-09-30T07:12:00.890Z,32224
2018-09-30T07:13:00.638Z,30688
2018-09-30T07:14:00.888Z,29472
2018-09-30T07:15:01.141Z,26848
2018-09-30T07:16:01.136Z,23168
2018-09-30T07:17:01.290Z,23712
2018-09-30T07:18:01.141Z,23872
2018-09-30T07:19:00.881Z,22912
2018-09-30T07:20:00.884Z,23392
2018-09-30T07:21:00.879Z,24416
2018-09-30T07:22:01.135Z,25120
2018-09-30T07:23:01.139Z,24128
2018-09-30T07:24:00.878Z,24480
2018-09-30T07:25:01.128Z,25632
2018-09-30T07:26:00.947Z,25344
2018-09-30T07:27:00.880Z,23744
2018-09-30T07:28:00.624Z,24064
2018-09-30T07:29:01.126Z,25216
2018-09-30T07:30:01.127Z,25376
2018-09-30T07:31:01.124Z,25440
2018-09-30T07:32:01.144Z,25728
2018-09-30T07:33:00.884Z,26304
2018-09-30T07:34:01.273Z,26592
2018-09-30T07:35:00.880Z,27040
2018-09-30T07:36:00.870Z,26528
2018-09-30T07:37:01.124Z,27200
2018-09-30T07:38:00.873Z,27424
2018-09-30T07:39:01.131Z,26528
2018-09-30T07:40:01.137Z,27520
2018-09-30T07:41:00.869Z,29504
2018-09-30T07:42:01.125Z,28160
2018-09-30T07:43:01.164Z,25280
2018-09-30T07:44:00.865Z,24480
2018-09-30T07:45:00.873Z,25952
2018-09-30T07:46:00.612Z,25440
2018-09-30T07:47:00.807Z,20768
2018-09-30T07:48:00.877Z,15052
2018-09-30T07:49:00.610Z,7148
2018-09-30T07:50:00.613Z,4996
2018-09-30T07:51:01.116Z,4780
2018-09-30T07:52:00.859Z,4704
2018-09-30T07:53:01.107Z,4668
2018-09-30T07:54:00.859Z,4664
2018-09-30T07:55:00.605Z,4648
2018-09-30T07:56:01.106Z,4692
2018-09-30T07:57:00.854Z,4712
2018-09-30T07:58:00.599Z,4724
2018-09-30T07:59:00.594Z,4732
2018-09-30T08:00:01.089Z,4728
2018-09-30T08:01:00.837Z,4696
2018-09-30T08:02:01.127Z,4688
2018-09-30T08:03:00.830Z,4692
2018-09-30T08:04:00.825Z,4688
2018-09-30T08:05:00.825Z,4684
2018-09-30T08:06:01.067Z,4676
2018-09-30T08:07:01.066Z,4668
2018-09-30T08:08:00.806Z,4668
2018-09-30T08:09:00.561Z,4660
2018-09-30T08:10:00.549Z,4648
2018-09-30T08:11:00.794Z,4640
2018-09-30T08:12:00.537Z,4640
2018-09-30T08:13:01.033Z,4628
2018-09-30T08:14:01.031Z,4624
2018-09-30T08:15:00.777Z,4616
2018-09-30T08:16:00.771Z,4604
2018-09-30T08:17:01.595Z,4596
2018-09-30T08:18:01.016Z,4588
2018-09-30T08:19:01.004Z,4588
2018-09-30T08:20:00.746Z,4588
2018-09-30T08:21:00.740Z,4588
2018-09-30T08:22:00.746Z,4588
2018-09-30T08:23:00.727Z,4572
2018-09-30T08:24:00.837Z,4560
2018-09-30T08:25:00.467Z,4556
2018-09-30T08:26:00.975Z,4556
2018-09-30T08:27:00.702Z,4548
2018-09-30T08:28:00.701Z,4544
2018-09-30T08:29:00.700Z,4528
2018-09-30T08:30:00.687Z,4516
2018-09-30T08:31:01.011Z,4508
2018-09-30T08:32:00.926Z,4500
2018-09-30T08:33:00.924Z,4492
2018-09-30T08:34:00.414Z,4488
2018-09-30T08:35:00.405Z,4488
2018-09-30T08:36:00.410Z,4488
2018-09-30T08:37:00.646Z,4480
2018-09-30T08:38:00.893Z,4480
2018-09-30T08:39:00.629Z,4488
2018-09-30T08:40:01.313Z,4500
2018-09-30T08:41:00.878Z,4508
2018-09-30T08:42:00.862Z,4504
2018-09-30T08:43:00.863Z,4496
2018-09-30T08:44:01.415Z,4488
2018-09-30T08:45:00.851Z,4476
2018-09-30T08:46:00.791Z,4464
2018-09-30T08:47:01.031Z,4456
2018-09-30T08:48:00.828Z,4452
2018-09-30T08:49:00.833Z,4436
2018-09-30T08:50:00.824Z,4432
2018-09-30T08:51:00.555Z,4428
2018-09-30T08:52:00.804Z,4408
2018-09-30T08:53:00.544Z,4396
2018-09-30T08:54:01.159Z,4380
2018-09-30T08:55:00.535Z,4368
2018-09-30T08:56:00.970Z,4360
2018-09-30T08:57:00.777Z,4352
2018-09-30T08:58:00.531Z,4348
2018-09-30T08:59:00.758Z,4344
2018-09-30T09:00:00.247Z,4336
2018-09-30T09:01:00.744Z,4332
2018-09-30T09:02:00.741Z,4324
2018-09-30T09:03:00.629Z,4316
2018-09-30T09:04:00.476Z,4320
2018-09-30T09:05:00.728Z,4312
2018-09-30T09:06:00.479Z,4304
2018-09-30T09:07:00.459Z,4304
2018-09-30T09:08:00.709Z,4300
2018-09-30T09:09:00.455Z,4284
2018-09-30T09:10:01.249Z,4264
2018-09-30T09:11:00.440Z,4288
2018-09-30T09:12:00.425Z,4356
2018-09-30T09:13:00.419Z,4476
2018-09-30T09:14:00.665Z,4632
2018-09-30T09:15:00.658Z,4748
2018-09-30T09:16:00.664Z,4732
2018-09-30T09:17:00.653Z,4664
2018-09-30T09:18:00.650Z,4616
2018-09-30T09:19:00.643Z,4568
2018-09-30T09:20:00.377Z,4464
2018-09-30T09:21:00.374Z,4452
2018-09-30T09:22:00.113Z,4512
2018-09-30T09:23:00.761Z,4616
2018-09-30T09:24:00.358Z,4728
2018-09-30T09:25:00.601Z,4860
2018-09-30T09:26:00.347Z,4976
2018-09-30T09:27:00.589Z,5004
2018-09-30T09:28:00.752Z,4984
2018-09-30T09:29:00.328Z,4904
2018-09-30T09:30:00.588Z,4820
2018-09-30T09:31:00.313Z,4716
2018-09-30T09:32:00.565Z,4624
2018-09-30T09:33:00.855Z,4516
2018-09-30T09:34:00.298Z,4416
2018-09-30T09:35:00.394Z,4348
2018-09-30T09:36:00.542Z,4300
2018-09-30T09:37:00.531Z,4268
2018-09-30T09:38:00.525Z,4232
2018-09-30T09:39:00.529Z,4208
2018-09-30T09:40:00.265Z,4188
2018-09-30T09:41:00.257Z,4172
2018-09-30T09:42:00.253Z,4164
2018-09-30T09:43:00.503Z,4160
2018-09-30T09:44:00.493Z,4148
2018-09-30T09:45:00.486Z,4144
2018-09-30T09:46:00.525Z,4136
2018-09-30T09:47:00.634Z,4132
2018-09-30T09:47:59.968Z,4132
2018-09-30T09:49:00.466Z,4124
2018-09-30T09:50:00.460Z,4116
2018-09-30T09:51:00.206Z,4116
2018-09-30T09:52:00.450Z,4108
2018-09-30T09:53:00.450Z,4100
2018-09-30T09:54:00.182Z,4088
2018-09-30T09:55:00.182Z,4084
2018-09-30T09:56:00.433Z,4080
2018-09-30T09:57:00.423Z,4076
2018-09-30T09:58:00.415Z,4072
2018-09-30T09:59:00.801Z,4072
2018-09-30T10:00:00.404Z,4072
2018-09-30T10:01:00.145Z,4068
2018-09-30T10:02:00.391Z,4060
2018-09-30T10:03:00.137Z,4060
2018-09-30T10:04:00.128Z,4060
2018-09-30T10:05:00.260Z,4052
2018-09-30T10:06:00.118Z,4044
2018-09-30T10:07:00.111Z,4040
2018-09-30T10:07:59.885Z,4036
2018-09-30T10:09:00.360Z,4032
2018-09-30T10:10:00.100Z,4024
2018-09-30T10:11:00.340Z,4020
2018-09-30T10:12:00.090Z,4012
2018-09-30T10:13:00.529Z,4008
2018-09-30T10:14:00.080Z,4000
2018-09-30T10:15:00.072Z,3996
2018-09-30T10:16:00.323Z,3992
2018-09-30T10:17:00.325Z,3984
2018-09-30T10:18:00.052Z,3976
2018-09-30T10:19:00.299Z,3976
2018-09-30T10:19:59.797Z,3976
2018-09-30T10:21:00.036Z,3972
2018-09-30T10:22:00.285Z,3968
2018-09-30T10:23:00.276Z,3960
2018-09-30T10:24:00.019Z,3960
2018-09-30T10:25:00.267Z,3956
2018-09-30T10:26:01.085Z,3952
2018-09-30T10:27:00.256Z,3944
2018-09-30T10:28:00.014Z,3944
2018-09-30T10:28:59.743Z,3948
2018-09-30T10:29:59.737Z,3940
2018-09-30T10:30:59.730Z,3936
2018-09-30T10:32:00.236Z,3928
2018-09-30T10:33:00.224Z,3924
2018-09-30T10:33:59.717Z,3920
2018-09-30T10:34:59.964Z,3908
2018-09-30T10:35:59.956Z,3904
2018-09-30T10:36:59.700Z,3892
2018-09-30T10:38:00.201Z,3884
2018-09-30T10:38:59.532Z,3880
2018-09-30T10:39:59.940Z,3880
2018-09-30T10:40:59.677Z,3876
2018-09-30T10:42:00.188Z,3872
2018-09-30T10:42:59.917Z,3864
2018-09-30T10:43:59.913Z,3852
2018-09-30T10:44:59.906Z,3844
2018-09-30T10:45:59.902Z,3836
2018-09-30T10:46:59.920Z,3832
2018-09-30T10:48:00.146Z,3828
2018-09-30T10:48:59.886Z,3828
2018-09-30T10:50:00.132Z,3824
2018-09-30T10:50:59.881Z,3824
2018-09-30T10:52:00.127Z,3816
2018-09-30T10:53:00.120Z,3808
2018-09-30T10:53:59.866Z,3800
2018-09-30T10:54:59.859Z,3796
2018-09-30T10:55:59.597Z,3796
2018-09-30T10:57:00.542Z,3792
2018-09-30T10:58:00.094Z,3796
2018-09-30T10:58:59.582Z,3792
2018-09-30T11:00:00.089Z,3784
2018-09-30T11:01:00.076Z,3776
2018-09-30T11:02:00.070Z,3776
2018-09-30T11:03:00.071Z,3780
2018-09-30T11:04:00.063Z,3776
2018-09-30T11:05:00.057Z,3768
2018-09-30T11:06:00.054Z,3764
2018-09-30T11:06:59.797Z,3760
2018-09-30T11:07:59.793Z,3756
2018-09-30T11:08:59.782Z,3752
2018-09-30T11:09:59.673Z,3752
2018-09-30T11:11:00.076Z,3744
2018-09-30T11:12:00.019Z,3744
2018-09-30T11:12:59.761Z,3740
2018-09-30T11:14:00.019Z,3732
2018-09-30T11:15:00.021Z,3728
2018-09-30T11:16:00.114Z,3724
2018-09-30T11:16:59.746Z,3716
2018-09-30T11:17:59.737Z,3708
2018-09-30T11:18:59.741Z,3700
2018-09-30T11:19:59.476Z,3700
2018-09-30T11:20:59.721Z,3692
2018-09-30T11:21:59.717Z,3688
2018-09-30T11:22:59.713Z,3684
2018-09-30T11:23:59.709Z,3676
2018-09-30T11:24:59.963Z,3672
2018-09-30T11:25:59.449Z,3672
2018-09-30T11:26:59.945Z,3664
2018-09-30T11:27:59.442Z,3660
2018-09-30T11:28:59.938Z,3656
2018-09-30T11:29:59.428Z,3652
2018-09-30T11:30:59.422Z,3648
2018-09-30T11:32:00.061Z,3648
2018-09-30T11:32:59.921Z,3648
2018-09-30T11:33:59.409Z,3648
2018-09-30T11:34:59.400Z,3652
2018-09-30T11:35:59.897Z,3648
2018-09-30T11:36:59.640Z,3648
2018-09-30T11:37:59.636Z,3656
2018-09-30T11:38:59.886Z,3660
2018-09-30T11:39:59.877Z,3648
2018-09-30T11:40:59.622Z,3644
2018-09-30T11:41:59.624Z,3636
2018-09-30T11:42:59.359Z,3632
2018-09-30T11:43:59.614Z,3632
2018-09-30T11:44:59.866Z,3632
2018-09-30T11:45:59.595Z,3632
2018-09-30T11:46:59.594Z,3624
2018-09-30T11:47:59.585Z,3620
2018-09-30T11:48:59.835Z,3616
2018-09-30T11:49:59.575Z,3608
2018-09-30T11:50:59.319Z,3604
2018-09-30T11:51:59.578Z,3596
2018-09-30T11:52:59.565Z,3592
2018-09-30T11:53:59.561Z,3592
2018-09-30T11:54:59.554Z,3584
2018-09-30T11:55:59.801Z,3576
2018-09-30T11:56:59.541Z,3568
2018-09-30T11:57:59.540Z,3568
2018-09-30T11:58:59.534Z,3564
2018-09-30T11:59:59.784Z,3564
2018-09-30T12:00:59.526Z,3564
2018-09-30T12:01:59.518Z,3564
2018-09-30T12:02:59.779Z,3564
2018-09-30T12:03:59.509Z,3556
2018-09-30T12:04:59.765Z,3552
2018-09-30T12:05:59.751Z,3548
2018-09-30T12:06:59.747Z,3544
2018-09-30T12:07:59.487Z,3544
2018-09-30T12:08:59.744Z,3540
2018-09-30T12:09:59.483Z,3536
2018-09-30T12:10:59.734Z,3524
2018-09-30T12:11:59.470Z,3512
2018-09-30T12:12:59.722Z,3512
2018-09-30T12:13:59.461Z,3512
2018-09-30T12:14:59.705Z,3516
2018-09-30T12:15:59.702Z,3512
2018-09-30T12:16:59.696Z,3520
2018-09-30T12:17:59.705Z,3528
2018-09-30T12:18:59.687Z,3524
2018-09-30T12:19:59.687Z,3524
2018-09-30T12:20:59.679Z,3524
2018-09-30T12:21:59.418Z,3524
2018-09-30T12:22:59.666Z,3520
2018-09-30T12:23:59.667Z,3512
2018-09-30T12:24:59.657Z,3504
2018-09-30T12:26:00.038Z,3504
2018-09-30T12:26:59.654Z,3500
2018-09-30T12:27:59.644Z,3504
2018-09-30T12:28:59.638Z,3504
2018-09-30T12:29:59.639Z,3504
2018-09-30T12:30:59.633Z,3500
2018-09-30T12:31:59.629Z,3492
2018-09-30T12:32:59.626Z,3480
2018-09-30T12:33:59.113Z,3476
2018-09-30T12:34:59.110Z,3468
2018-09-30T12:35:59.615Z,3464
2018-09-30T12:36:59.616Z,3460
2018-09-30T12:37:59.597Z,3460
2018-09-30T12:38:59.098Z,3460
2018-09-30T12:39:59.586Z,3464
2018-09-30T12:40:59.580Z,3468
2018-09-30T12:41:59.578Z,3468
2018-09-30T12:42:59.066Z,3468
2018-09-30T12:43:59.566Z,3468
2018-09-30T12:44:59.321Z,3464
2018-09-30T12:45:59.055Z,3460
2018-09-30T12:46:59.317Z,3456
2018-09-30T12:47:59.546Z,3448
2018-09-30T12:48:59.543Z,3440
2018-09-30T12:49:59.541Z,3432
2018-09-30T12:50:59.535Z,3432
2018-09-30T12:51:59.027Z,3432
2018-09-30T12:52:59.526Z,3436
2018-09-30T12:53:59.272Z,3436
2018-09-30T12:54:59.527Z,3432
2018-09-30T12:55:59.509Z,3428
2018-09-30T12:56:59.507Z,3428
2018-09-30T12:57:59.739Z,3432
2018-09-30T12:58:59.285Z,3428
2018-09-30T12:59:59.241Z,3424
2018-09-30T13:00:59.492Z,3420
2018-09-30T13:01:59.480Z,3412
2018-09-30T13:02:59.475Z,3412
2018-09-30T13:03:59.225Z,3416
2018-09-30T13:04:59.467Z,3416
2018-09-30T13:05:59.398Z,3416
2018-09-30T13:06:59.457Z,3416
2018-09-30T13:07:59.219Z,3408
2018-09-30T13:08:59.462Z,3400
2018-09-30T13:09:59.194Z,3400
2018-09-30T13:10:59.194Z,3392
2018-09-30T13:11:58.949Z,3380
2018-09-30T13:12:59.432Z,3380
2018-09-30T13:13:59.423Z,3376
2018-09-30T13:14:59.467Z,3376
2018-09-30T13:15:59.164Z,3376
2018-09-30T13:16:59.415Z,3376
2018-09-30T13:17:59.408Z,3372
2018-09-30T13:18:59.672Z,3364
2018-09-30T13:19:59.398Z,3364
2018-09-30T13:20:59.681Z,3360
2018-09-30T13:21:59.390Z,3356
2018-09-30T13:22:59.385Z,3360
2018-09-30T13:23:59.387Z,3364
2018-09-30T13:24:59.376Z,3364
2018-09-30T13:25:59.367Z,3360
2018-09-30T13:26:59.113Z,3360
2018-09-30T13:27:59.357Z,3348
2018-09-30T13:28:59.101Z,3348
2018-09-30T13:29:59.352Z,3348
2018-09-30T13:30:59.345Z,3344
2018-09-30T13:31:59.089Z,3340
2018-09-30T13:32:58.835Z,3336
2018-09-30T13:33:59.080Z,3332
2018-09-30T13:34:59.331Z,3332
2018-09-30T13:35:59.324Z,3328
2018-09-30T13:36:59.063Z,3324
2018-09-30T13:37:59.315Z,3320
2018-09-30T13:38:59.307Z,3316
2018-09-30T13:39:59.461Z,3312
2018-09-30T13:41:00.277Z,3312
2018-09-30T13:41:59.296Z,3312
2018-09-30T13:42:58.784Z,3308
2018-09-30T13:43:59.280Z,3308
2018-09-30T13:44:59.024Z,3300